sensor_id;sensor_type;location;lat;lon;timestamp;pressure;altitude;pressure_sealevel;temperature;humidity
31483;BME280;18103;52.246;8.052;2023-01-27T00:00:13;101270.44;;;3.18;87.57
31483;BME280;18103;52.246;8.052;2023-01-27T00:02:42;101279.28;;;3.14;88.17
31483;BME280;18103;52.246;8.052;2023-01-27T00:05:09;101271.22;;;3.22;87.48
31483;BME280;18103;52.246;8.052;2023-01-27T00:07:35;101275.66;;;3.18;87.66
31483;BME280;18103;52.246;8.052;2023-01-27T00:10:01;101271.50;;;3.13;87.99
31483;BME280;18103;52.246;8.052;2023-01-27T00:12:27;101271.28;;;3.19;87.90
31483;BME280;18103;52.246;8.052;2023-01-27T00:15:13;101272.00;;;3.24;87.55
31483;BME280;18103;52.246;8.052;2023-01-27T00:17:39;101271.22;;;3.22;87.83
31483;BME280;18103;52.246;8.052;2023-01-27T00:20:05;101272.28;;;3.16;88.28
31483;BME280;18103;52.246;8.052;2023-01-27T00:22:31;101271.41;;;3.16;88.10
31483;BME280;18103;52.246;8.052;2023-01-27T00:25:15;101266.72;;;3.25;87.84
31483;BME280;18103;52.246;8.052;2023-01-27T00:27:40;101266.41;;;3.10;88.15
31483;BME280;18103;52.246;8.052;2023-01-27T00:30:06;101269.75;;;3.13;88.55
31483;BME280;18103;52.246;8.052;2023-01-27T00:32:32;101272.72;;;3.29;87.94
31483;BME280;18103;52.246;8.052;2023-01-27T00:35:16;101263.41;;;3.20;87.93
31483;BME280;18103;52.246;8.052;2023-01-27T00:37:43;101267.94;;;3.15;88.59
31483;BME280;18103;52.246;8.052;2023-01-27T00:40:11;101266.84;;;3.22;88.17
31483;BME280;18103;52.246;8.052;2023-01-27T00:42:36;101268.84;;;3.14;88.30
31483;BME280;18103;52.246;8.052;2023-01-27T00:45:02;101272.00;;;3.24;88.39
31483;BME280;18103;52.246;8.052;2023-01-27T00:47:56;101268.56;;;3.23;87.47
31483;BME280;18103;52.246;8.052;2023-01-27T00:50:22;101268.56;;;3.23;87.76
31483;BME280;18103;52.246;8.052;2023-01-27T00:52:48;101271.28;;;3.19;88.18
31483;BME280;18103;52.246;8.052;2023-01-27T00:55:13;101276.63;;;3.16;88.40
31483;BME280;18103;52.246;8.052;2023-01-27T00:57:42;101266.84;;;3.22;88.52
31483;BME280;18103;52.246;8.052;2023-01-27T01:00:08;101280.53;;;3.29;88.23
31483;BME280;18103;52.246;8.052;2023-01-27T01:02:35;101280.88;;;3.18;88.29
31483;BME280;18103;52.246;8.052;2023-01-27T01:05:00;101279.28;;;3.14;88.71
31483;BME280;18103;52.246;8.052;2023-01-27T01:07:26;101281.88;;;3.14;88.86
31483;BME280;18103;52.246;8.052;2023-01-27T01:09:51;101274.88;;;3.16;88.65
31483;BME280;18103;52.246;8.052;2023-01-27T01:12:16;101280.66;;;3.24;88.68
31483;BME280;18103;52.246;8.052;2023-01-27T01:14:42;101272.41;;;3.12;89.39
31483;BME280;18103;52.246;8.052;2023-01-27T01:17:07;101270.84;;;3.06;89.72
31483;BME280;18103;52.246;8.052;2023-01-27T01:19:33;101271.22;;;3.22;89.47
31483;BME280;18103;52.246;8.052;2023-01-27T01:21:58;101272.28;;;3.15;89.49
31483;BME280;18103;52.246;8.052;2023-01-27T01:24:23;101283.66;;;3.14;89.42
31483;BME280;18103;52.246;8.052;2023-01-27T01:26:50;101279.53;;;3.33;88.68
31483;BME280;18103;52.246;8.052;2023-01-27T01:29:15;101282.22;;;3.30;88.85
31483;BME280;18103;52.246;8.052;2023-01-27T01:31:40;101282.28;;;3.29;89.32
31483;BME280;18103;52.246;8.052;2023-01-27T01:34:06;101280.66;;;3.26;88.98
31483;BME280;18103;52.246;8.052;2023-01-27T01:36:32;101285.72;;;3.31;89.18
31483;BME280;18103;52.246;8.052;2023-01-27T01:38:57;101283.94;;;3.31;88.75
31483;BME280;18103;52.246;8.052;2023-01-27T01:41:24;101291.72;;;3.33;89.13
31483;BME280;18103;52.246;8.052;2023-01-27T01:43:50;101283.69;;;3.39;88.96
31483;BME280;18103;52.246;8.052;2023-01-27T01:46:16;101286.38;;;3.37;88.34
31483;BME280;18103;52.246;8.052;2023-01-27T01:51:24;101281.22;;;3.34;89.08
31483;BME280;18103;52.246;8.052;2023-01-27T01:53:57;101279.31;;;3.39;88.66
31483;BME280;18103;52.246;8.052;2023-01-27T01:56:30;101280.50;;;3.31;89.18
31483;BME280;18103;52.246;8.052;2023-01-27T01:59:02;101277.22;;;3.24;89.26
31483;BME280;18103;52.246;8.052;2023-01-27T02:01:28;101273.41;;;3.34;89.27
31483;BME280;18103;52.246;8.052;2023-01-27T02:03:57;101272.84;;;3.24;89.47
31483;BME280;18103;52.246;8.052;2023-01-27T02:06:25;101272.44;;;3.37;89.28
31483;BME280;18103;52.246;8.052;2023-01-27T02:08:50;101274.06;;;3.14;89.79
31483;BME280;18103;52.246;8.052;2023-01-27T02:11:16;101272.16;;;3.19;89.93
31483;BME280;18103;52.246;8.052;2023-01-27T02:13:42;101272.94;;;3.21;89.76
31483;BME280;18103;52.246;8.052;2023-01-27T02:16:10;101277.00;;;3.30;89.69
31483;BME280;18103;52.246;8.052;2023-01-27T02:18:38;101278.44;;;3.40;89.42
31483;BME280;18103;52.246;8.052;2023-01-27T02:21:04;101278.63;;;3.34;89.47
31483;BME280;18103;52.246;8.052;2023-01-27T02:23:47;101280.09;;;3.43;88.99
31483;BME280;18103;52.246;8.052;2023-01-27T02:26:20;101267.88;;;3.43;88.65
31483;BME280;18103;52.246;8.052;2023-01-27T02:28:53;101276.00;;;3.34;89.39
31483;BME280;18103;52.246;8.052;2023-01-27T02:31:20;101276.00;;;3.34;89.79
31483;BME280;18103;52.246;8.052;2023-01-27T02:33:45;101271.34;;;3.44;89.11
31483;BME280;18103;52.246;8.052;2023-01-27T02:36:15;101274.03;;;3.41;89.01
31483;BME280;18103;52.246;8.052;2023-01-27T02:38:48;101278.81;;;3.55;88.50
31483;BME280;18103;52.246;8.052;2023-01-27T02:43:39;101267.63;;;3.51;88.52
31483;BME280;18103;52.246;8.052;2023-01-27T02:46:05;101273.31;;;3.37;89.50
31483;BME280;18103;52.246;8.052;2023-01-27T02:48:31;101272.31;;;3.41;89.06
31483;BME280;18103;52.246;8.052;2023-01-27T02:50:56;101274.09;;;3.39;89.35
31483;BME280;18103;52.246;8.052;2023-01-27T02:53:21;101275.72;;;3.43;89.08
31483;BME280;18103;52.246;8.052;2023-01-27T02:55:47;101272.03;;;3.49;89.01
31483;BME280;18103;52.246;8.052;2023-01-27T02:58:12;101281.19;;;3.36;89.49
31483;BME280;18103;52.246;8.052;2023-01-27T03:00:40;101283.81;;;3.36;89.56
31483;BME280;18103;52.246;8.052;2023-01-27T03:03:06;101277.94;;;3.29;89.68
31483;BME280;18103;52.246;8.052;2023-01-27T03:05:32;101271.78;;;3.30;89.70
31483;BME280;18103;52.246;8.052;2023-01-27T03:07:57;101276.94;;;3.33;89.35
31483;BME280;18103;52.246;8.052;2023-01-27T03:10:22;101281.28;;;3.33;89.54
31483;BME280;18103;52.246;8.052;2023-01-27T03:12:48;101290.72;;;3.37;89.49
31483;BME280;18103;52.246;8.052;2023-01-27T03:15:13;101278.63;;;3.34;89.58
31483;BME280;18103;52.246;8.052;2023-01-27T03:18:08;101280.28;;;3.37;89.16
31483;BME280;18103;52.246;8.052;2023-01-27T03:20:33;101282.94;;;3.35;89.01
31483;BME280;18103;52.246;8.052;2023-01-27T03:22:59;101275.38;;;3.28;89.07
31483;BME280;18103;52.246;8.052;2023-01-27T03:25:24;101291.03;;;3.28;88.90
31483;BME280;18103;52.246;8.052;2023-01-27T03:27:50;101289.72;;;3.14;89.00
31483;BME280;18103;52.246;8.052;2023-01-27T03:30:15;101291.22;;;3.21;89.42
31483;BME280;18103;52.246;8.052;2023-01-27T03:32:40;101289.06;;;3.07;89.50
31483;BME280;18103;52.246;8.052;2023-01-27T03:35:14;101283.16;;;3.02;89.97
31483;BME280;18103;52.246;8.052;2023-01-27T03:37:40;101282.94;;;3.08;90.19
31483;BME280;18103;52.246;8.052;2023-01-27T03:40:24;101283.72;;;3.12;89.72
31483;BME280;18103;52.246;8.052;2023-01-27T03:43:08;101288.59;;;3.21;89.59
31483;BME280;18103;52.246;8.052;2023-01-27T03:45:52;101283.59;;;3.15;89.60
31483;BME280;18103;52.246;8.052;2023-01-27T03:48:37;101295.38;;;3.27;89.39
31483;BME280;18103;52.246;8.052;2023-01-27T03:51:04;101296.25;;;3.28;89.00
31483;BME280;18103;52.246;8.052;2023-01-27T03:53:31;101296.88;;;3.34;88.54
31483;BME280;18103;52.246;8.052;2023-01-27T03:55:57;101299.91;;;3.22;88.85
31483;BME280;18103;52.246;8.052;2023-01-27T03:58:30;101306.06;;;3.19;89.09
31483;BME280;18103;52.246;8.052;2023-01-27T04:00:58;101300.53;;;3.29;88.87
31483;BME280;18103;52.246;8.052;2023-01-27T04:03:26;101306.63;;;3.29;88.81
31483;BME280;18103;52.246;8.052;2023-01-27T04:06:23;101309.59;;;3.18;89.62
31483;BME280;18103;52.246;8.052;2023-01-27T04:09:08;101302.53;;;3.22;89.61
31483;BME280;18103;52.246;8.052;2023-01-27T04:11:34;101305.03;;;3.25;89.33
31483;BME280;18103;52.246;8.052;2023-01-27T04:14:19;101302.31;;;3.28;89.33
31483;BME280;18103;52.246;8.052;2023-01-27T04:16:45;101301.81;;;3.17;89.10
31483;BME280;18103;52.246;8.052;2023-01-27T04:19:11;101304.22;;;3.23;89.39
31483;BME280;18103;52.246;8.052;2023-01-27T04:21:37;101314.25;;;3.35;89.19
31483;BME280;18103;52.246;8.052;2023-01-27T04:24:03;101317.13;;;3.28;89.76
31483;BME280;18103;52.246;8.052;2023-01-27T04:26:29;101313.69;;;3.25;89.60
31483;BME280;18103;52.246;8.052;2023-01-27T04:29:02;101310.09;;;3.30;89.87
31483;BME280;18103;52.246;8.052;2023-01-27T04:31:28;101312.53;;;3.34;89.39
31483;BME280;18103;52.246;8.052;2023-01-27T04:33:53;101309.69;;;3.15;90.22
31483;BME280;18103;52.246;8.052;2023-01-27T04:36:18;101313.63;;;3.27;90.32
31483;BME280;18103;52.246;8.052;2023-01-27T04:38:44;101312.34;;;3.40;89.42
31483;BME280;18103;52.246;8.052;2023-01-27T04:41:09;101318.31;;;3.44;89.19
31483;BME280;18103;52.246;8.052;2023-01-27T04:43:35;101322.91;;;3.37;89.44
31483;BME280;18103;52.246;8.052;2023-01-27T04:46:01;101325.56;;;3.36;89.41
31483;BME280;18103;52.246;8.052;2023-01-27T04:48:26;101320.53;;;3.30;90.25
31483;BME280;18103;52.246;8.052;2023-01-27T04:50:52;101323.69;;;3.39;89.41
31483;BME280;18103;52.246;8.052;2023-01-27T04:53:17;101321.19;;;3.36;89.78
31483;BME280;18103;52.246;8.052;2023-01-27T04:55:46;101327.25;;;3.37;89.61
31483;BME280;18103;52.246;8.052;2023-01-27T04:58:12;101329.34;;;3.25;90.78
31483;BME280;18103;52.246;8.052;2023-01-27T05:00:37;101327.00;;;3.45;89.81
31483;BME280;18103;52.246;8.052;2023-01-27T05:03:03;101333.97;;;3.44;90.01
31483;BME280;18103;52.246;8.052;2023-01-27T05:05:33;101326.13;;;3.44;89.57
31483;BME280;18103;52.246;8.052;2023-01-27T05:08:06;101333.84;;;3.49;89.67
31483;BME280;18103;52.246;8.052;2023-01-27T05:10:32;101338.41;;;3.42;89.50
31483;BME280;18103;52.246;8.052;2023-01-27T05:12:58;101335.69;;;3.45;89.89
31483;BME280;18103;52.246;8.052;2023-01-27T05:15:24;101347.78;;;3.48;90.13
31483;BME280;18103;52.246;8.052;2023-01-27T05:17:49;101343.28;;;3.53;89.43
31483;BME280;18103;52.246;8.052;2023-01-27T05:20:15;101339.94;;;3.48;89.79
31483;BME280;18103;52.246;8.052;2023-01-27T05:22:41;101335.72;;;3.43;90.34
31483;BME280;18103;52.246;8.052;2023-01-27T05:25:07;101338.44;;;3.40;90.50
31483;BME280;18103;52.246;8.052;2023-01-27T05:27:33;101337.72;;;3.35;90.24
31483;BME280;18103;52.246;8.052;2023-01-27T05:29:58;101342.22;;;3.32;90.92
31483;BME280;18103;52.246;8.052;2023-01-27T05:32:23;101354.09;;;3.40;90.94
31483;BME280;18103;52.246;8.052;2023-01-27T05:34:49;101337.69;;;3.37;90.61
31483;BME280;18103;52.246;8.052;2023-01-27T05:37:14;101342.78;;;3.40;90.67
31483;BME280;18103;52.246;8.052;2023-01-27T05:39:40;101352.44;;;3.38;91.06
31483;BME280;18103;52.246;8.052;2023-01-27T05:42:05;101355.94;;;3.37;91.21
31483;BME280;18103;52.246;8.052;2023-01-27T05:44:30;101346.94;;;3.47;90.68
31483;BME280;18103;52.246;8.052;2023-01-27T05:46:56;101351.34;;;3.45;90.62
31483;BME280;18103;52.246;8.052;2023-01-27T05:49:21;101351.09;;;3.53;90.52
31483;BME280;18103;52.246;8.052;2023-01-27T05:51:46;101347.00;;;3.44;90.86
31483;BME280;18103;52.246;8.052;2023-01-27T05:54:12;101351.19;;;3.50;91.00
31483;BME280;18103;52.246;8.052;2023-01-27T05:56:37;101355.56;;;3.49;90.56
31483;BME280;18103;52.246;8.052;2023-01-27T05:59:03;101360.06;;;3.44;90.87
31483;BME280;18103;52.246;8.052;2023-01-27T06:01:30;101354.59;;;3.52;90.51
31483;BME280;18103;52.246;8.052;2023-01-27T06:03:57;101362.72;;;3.42;91.16
31483;BME280;18103;52.246;8.052;2023-01-27T06:06:24;101366.44;;;3.35;91.35
31483;BME280;18103;52.246;8.052;2023-01-27T06:08:50;101368.94;;;3.38;91.37
31483;BME280;18103;52.246;8.052;2023-01-27T06:11:17;101367.50;;;3.56;90.84
31483;BME280;18103;52.246;8.052;2023-01-27T06:13:47;101374.53;;;3.54;90.83
31483;BME280;18103;52.246;8.052;2023-01-27T06:16:14;101371.88;;;3.56;90.71
31483;BME280;18103;52.246;8.052;2023-01-27T06:18:42;101376.44;;;3.49;91.19
31483;BME280;18103;52.246;8.052;2023-01-27T06:21:09;101380.00;;;3.47;90.65
31483;BME280;18103;52.246;8.052;2023-01-27T06:23:35;101384.09;;;3.54;90.74
31483;BME280;18103;52.246;8.052;2023-01-27T06:26:03;101384.88;;;3.57;90.88
31483;BME280;18103;52.246;8.052;2023-01-27T06:28:29;101390.09;;;3.57;90.63
31483;BME280;18103;52.246;8.052;2023-01-27T06:30:56;101389.09;;;3.62;91.08
31483;BME280;18103;52.246;8.052;2023-01-27T06:33:28;101382.94;;;3.64;90.27
31483;BME280;18103;52.246;8.052;2023-01-27T06:35:59;101394.22;;;3.65;90.62
31483;BME280;18103;52.246;8.052;2023-01-27T06:38:25;101383.38;;;3.50;91.13
31483;BME280;18103;52.246;8.052;2023-01-27T06:40:50;101390.38;;;3.48;91.65
31483;BME280;18103;52.246;8.052;2023-01-27T06:43:16;101391.88;;;3.57;90.63
31483;BME280;18103;52.246;8.052;2023-01-27T06:45:42;101388.38;;;3.56;90.81
31483;BME280;18103;52.246;8.052;2023-01-27T06:48:08;101393.88;;;3.49;91.19
31483;BME280;18103;52.246;8.052;2023-01-27T06:50:34;101392.81;;;3.54;91.00
31483;BME280;18103;52.246;8.052;2023-01-27T06:53:02;101391.94;;;3.54;90.94
31483;BME280;18103;52.246;8.052;2023-01-27T06:55:27;101392.16;;;3.48;91.37
31483;BME280;18103;52.246;8.052;2023-01-27T06:57:53;101387.09;;;3.70;90.55
31483;BME280;18103;52.246;8.052;2023-01-27T07:00:19;101400.03;;;3.73;90.18
31483;BME280;18103;52.246;8.052;2023-01-27T07:02:44;101406.75;;;3.53;90.85
31483;BME280;18103;52.246;8.052;2023-01-27T07:05:11;101410.31;;;3.51;91.00
31483;BME280;18103;52.246;8.052;2023-01-27T07:07:36;101408.81;;;3.70;90.35
31483;BME280;18103;52.246;8.052;2023-01-27T07:10:04;101415.81;;;3.70;90.04
31483;BME280;18103;52.246;8.052;2023-01-27T07:12:30;101418.19;;;3.49;91.25
31483;BME280;18103;52.246;8.052;2023-01-27T07:14:55;101414.34;;;3.61;90.97
31483;BME280;18103;52.246;8.052;2023-01-27T07:17:21;101417.59;;;3.68;90.63
31483;BME280;18103;52.246;8.052;2023-01-27T07:19:46;101419.59;;;3.61;90.70
31483;BME280;18103;52.246;8.052;2023-01-27T07:22:11;101426.84;;;3.51;91.10
31483;BME280;18103;52.246;8.052;2023-01-27T07:24:37;101427.75;;;3.50;91.15
31483;BME280;18103;52.246;8.052;2023-01-27T07:27:02;101430.47;;;3.74;90.50
31483;BME280;18103;52.246;8.052;2023-01-27T07:29:28;101432.09;;;3.78;89.89
31483;BME280;18103;52.246;8.052;2023-01-27T07:31:53;101438.38;;;3.72;90.35
31483;BME280;18103;52.246;8.052;2023-01-27T07:34:18;101445.28;;;3.73;90.31
31483;BME280;18103;52.246;8.052;2023-01-27T07:36:44;101449.50;;;3.77;90.12
31483;BME280;18103;52.246;8.052;2023-01-27T07:39:09;101447.94;;;3.72;89.97
31483;BME280;18103;52.246;8.052;2023-01-27T07:41:35;101458.19;;;3.78;90.32
31483;BME280;18103;52.246;8.052;2023-01-27T07:44:00;101456.44;;;3.79;90.09
31483;BME280;18103;52.246;8.052;2023-01-27T07:46:25;101460.59;;;3.84;89.71
31483;BME280;18103;52.246;8.052;2023-01-27T07:48:51;101459.31;;;3.71;90.43
31483;BME280;18103;52.246;8.052;2023-01-27T07:51:16;101465.09;;;3.79;90.28
31483;BME280;18103;52.246;8.052;2023-01-27T07:53:42;101466.88;;;3.79;89.92
31483;BME280;18103;52.246;8.052;2023-01-27T07:56:07;101458.69;;;3.63;90.26
31483;BME280;18103;52.246;8.052;2023-01-27T07:58:40;101459.63;;;3.60;90.40
31483;BME280;18103;52.246;8.052;2023-01-27T08:01:10;101476.91;;;3.64;90.32
31483;BME280;18103;52.246;8.052;2023-01-27T08:03:36;101482.53;;;3.79;89.56
31483;BME280;18103;52.246;8.052;2023-01-27T08:06:09;101476.72;;;3.70;89.85
31483;BME280;18103;52.246;8.052;2023-01-27T08:08:35;101482.88;;;3.68;90.08
31483;BME280;18103;52.246;8.052;2023-01-27T08:11:03;101489.25;;;3.59;89.73
31483;BME280;18103;52.246;8.052;2023-01-27T08:13:29;101490.03;;;3.63;89.48
31483;BME280;18103;52.246;8.052;2023-01-27T08:15:57;101493.41;;;3.65;89.76
31483;BME280;18103;52.246;8.052;2023-01-27T08:18:22;101498.84;;;3.58;90.03
31483;BME280;18103;52.246;8.052;2023-01-27T08:20:49;101500.41;;;3.64;90.22
31483;BME280;18103;52.246;8.052;2023-01-27T08:23:17;101497.03;;;3.60;89.16
31483;BME280;18103;52.246;8.052;2023-01-27T08:25:54;101497.91;;;3.59;89.81
31483;BME280;18103;52.246;8.052;2023-01-27T08:28:21;101497.41;;;3.48;90.17
31483;BME280;18103;52.246;8.052;2023-01-27T08:30:47;101498.94;;;3.55;89.19
31483;BME280;18103;52.246;8.052;2023-01-27T08:33:16;101505.47;;;3.69;88.94
31483;BME280;18103;52.246;8.052;2023-01-27T08:35:42;101503.03;;;3.64;89.43
31483;BME280;18103;52.246;8.052;2023-01-27T08:38:12;101509.75;;;3.71;89.53
31483;BME280;18103;52.246;8.052;2023-01-27T08:40:39;101518.78;;;3.61;89.58
31483;BME280;18103;52.246;8.052;2023-01-27T08:43:05;101520.78;;;3.53;89.46
31483;BME280;18103;52.246;8.052;2023-01-27T08:45:31;101520.81;;;3.51;89.54
31483;BME280;18103;52.246;8.052;2023-01-27T08:47:56;101532.88;;;3.55;89.04
31483;BME280;18103;52.246;8.052;2023-01-27T08:50:21;101530.47;;;3.48;89.80
31483;BME280;18103;52.246;8.052;2023-01-27T08:52:47;101525.25;;;3.48;89.71
31483;BME280;18103;52.246;8.052;2023-01-27T08:55:12;101534.94;;;3.44;89.58
31483;BME280;18103;52.246;8.052;2023-01-27T08:57:38;101528.81;;;3.45;89.43
31483;BME280;18103;52.246;8.052;2023-01-27T09:00:04;101537.59;;;3.42;89.69
31483;BME280;18103;52.246;8.052;2023-01-27T09:02:31;101533.78;;;3.54;89.30
31483;BME280;18103;52.246;8.052;2023-01-27T09:04:56;101530.38;;;3.51;89.29
31483;BME280;18103;52.246;8.052;2023-01-27T09:07:22;101527.88;;;3.48;89.17
31483;BME280;18103;52.246;8.052;2023-01-27T09:09:48;101530.28;;;3.55;89.39
31483;BME280;18103;52.246;8.052;2023-01-27T09:12:13;101536.59;;;3.76;88.38
31483;BME280;18103;52.246;8.052;2023-01-27T09:14:39;101532.13;;;3.80;88.25
31483;BME280;18103;52.246;8.052;2023-01-27T09:17:05;101538.47;;;3.71;88.44
31483;BME280;18103;52.246;8.052;2023-01-27T09:19:30;101547.31;;;3.67;88.60
31483;BME280;18103;52.246;8.052;2023-01-27T09:21:56;101543.22;;;3.58;88.99
31483;BME280;18103;52.246;8.052;2023-01-27T09:24:21;101546.63;;;3.60;89.25
31483;BME280;18103;52.246;8.052;2023-01-27T09:26:47;101543.19;;;3.60;89.25
31483;BME280;18103;52.246;8.052;2023-01-27T09:29:12;101543.91;;;3.65;88.80
31483;BME280;18103;52.246;8.052;2023-01-27T09:31:38;101549.88;;;3.69;89.07
31483;BME280;18103;52.246;8.052;2023-01-27T09:34:03;101546.41;;;3.68;88.68
31483;BME280;18103;52.246;8.052;2023-01-27T09:36:29;101548.88;;;3.73;88.96
31483;BME280;18103;52.246;8.052;2023-01-27T09:39:01;101546.78;;;3.84;88.27
31483;BME280;18103;52.246;8.052;2023-01-27T09:42:05;101542.97;;;3.66;89.29
31483;BME280;18103;52.246;8.052;2023-01-27T09:48:11;101552.91;;;3.83;89.16
31483;BME280;18103;52.246;8.052;2023-01-27T09:50:44;101549.28;;;3.87;88.93
31483;BME280;18103;52.246;8.052;2023-01-27T09:56:07;101547.25;;;3.97;89.09
31483;BME280;18103;52.246;8.052;2023-01-27T09:58:40;101554.97;;;4.02;88.85
31483;BME280;18103;52.246;8.052;2023-01-27T10:07:03;101556.59;;;4.06;87.85
31483;BME280;18103;52.246;8.052;2023-01-27T10:21:15;101549.09;;;4.22;87.60
31483;BME280;18103;52.246;8.052;2023-01-27T10:26:42;101564.06;;;4.17;87.18
31483;BME280;18103;52.246;8.052;2023-01-27T10:32:06;101565.22;;;4.35;87.11
31483;BME280;18103;52.246;8.052;2023-01-27T10:37:12;101568.66;;;4.37;86.17
31483;BME280;18103;52.246;8.052;2023-01-27T10:40:09;101569.06;;;4.24;86.93
31483;BME280;18103;52.246;8.052;2023-01-27T10:43:00;101567.59;;;4.42;86.52
31483;BME280;18103;52.246;8.052;2023-01-27T10:45:41;101558.38;;;4.31;87.02
31483;BME280;18103;52.246;8.052;2023-01-27T10:48:28;101557.16;;;4.42;86.41
31483;BME280;18103;52.246;8.052;2023-01-27T10:51:02;101568.50;;;4.41;85.65
31483;BME280;18103;52.246;8.052;2023-01-27T10:53:32;101565.13;;;4.38;85.16
31483;BME280;18103;52.246;8.052;2023-01-27T10:56:16;101561.25;;;4.50;85.03
31483;BME280;18103;52.246;8.052;2023-01-27T11:01:33;101559.81;;;4.41;85.26
31483;BME280;18103;52.246;8.052;2023-01-27T11:06:39;101560.09;;;4.58;83.78
31483;BME280;18103;52.246;8.052;2023-01-27T11:09:24;101562.75;;;4.57;84.63
31483;BME280;18103;52.246;8.052;2023-01-27T11:11:55;101555.25;;;4.46;84.26
31483;BME280;18103;52.246;8.052;2023-01-27T11:14:42;101563.09;;;4.46;83.71
31483;BME280;18103;52.246;8.052;2023-01-27T11:17:14;101552.66;;;4.46;84.43
31483;BME280;18103;52.246;8.052;2023-01-27T11:25:16;101555.47;;;4.40;83.94
31483;BME280;18103;52.246;8.052;2023-01-27T11:27:55;101558.09;;;4.40;83.54
31483;BME280;18103;52.246;8.052;2023-01-27T11:30:38;101550.31;;;4.38;83.03
31483;BME280;18103;52.246;8.052;2023-01-27T11:35:41;101553.56;;;4.45;83.03
31483;BME280;18103;52.246;8.052;2023-01-27T11:38:12;101552.66;;;4.46;83.20
31483;BME280;18103;52.246;8.052;2023-01-27T11:40:38;101550.44;;;4.34;83.21
31483;BME280;18103;52.246;8.052;2023-01-27T11:43:05;101556.88;;;4.50;82.72
31483;BME280;18103;52.246;8.052;2023-01-27T11:45:34;101543.50;;;4.59;82.97
31483;BME280;18103;52.246;8.052;2023-01-27T11:48:01;101554.16;;;4.53;82.97
31483;BME280;18103;52.246;8.052;2023-01-27T11:50:33;101549.91;;;4.51;83.73
31483;BME280;18103;52.246;8.052;2023-01-27T11:53:16;101548.03;;;4.54;82.85
31483;BME280;18103;52.246;8.052;2023-01-27T11:55:49;101552.13;;;4.61;83.07
31483;BME280;18103;52.246;8.052;2023-01-27T11:58:25;101548.06;;;4.53;83.15
31483;BME280;18103;52.246;8.052;2023-01-27T12:01:00;101549.03;;;4.50;82.18
31483;BME280;18103;52.246;8.052;2023-01-27T12:06:03;101550.53;;;4.57;82.22
31483;BME280;18103;52.246;8.052;2023-01-27T12:08:41;101549.31;;;4.68;82.73
31483;BME280;18103;52.246;8.052;2023-01-27T12:11:18;101546.00;;;4.62;83.13
31483;BME280;18103;52.246;8.052;2023-01-27T12:13:57;101537.91;;;4.45;82.74
31483;BME280;18103;52.246;8.052;2023-01-27T12:16:47;101538.78;;;4.44;82.93
31483;BME280;18103;52.246;8.052;2023-01-27T12:19:24;101543.63;;;4.30;83.92
31483;BME280;18103;52.246;8.052;2023-01-27T12:21:55;101533.03;;;4.59;83.27
31483;BME280;18103;52.246;8.052;2023-01-27T12:24:31;101539.13;;;4.33;83.45
31483;BME280;18103;52.246;8.052;2023-01-27T12:26:59;101532.13;;;4.34;82.36
31483;BME280;18103;52.246;8.052;2023-01-27T12:29:50;101530.88;;;4.45;82.69
31483;BME280;18103;52.246;8.052;2023-01-27T12:32:40;101537.19;;;4.40;82.98
31483;BME280;18103;52.246;8.052;2023-01-27T12:37:47;101521.78;;;4.31;83.09
31483;BME280;18103;52.246;8.052;2023-01-27T12:40:22;101522.41;;;4.39;83.19
31483;BME280;18103;52.246;8.052;2023-01-27T12:43:04;101526.56;;;4.44;83.21
31483;BME280;18103;52.246;8.052;2023-01-27T12:45:31;101515.03;;;4.50;83.65
31483;BME280;18103;52.246;8.052;2023-01-27T12:50:38;101515.63;;;4.58;83.68
31483;BME280;18103;52.246;8.052;2023-01-27T12:58:31;101515.56;;;4.60;82.94
31483;BME280;18103;52.246;8.052;2023-01-27T13:01:00;101509.09;;;4.47;83.21
31483;BME280;18103;52.246;8.052;2023-01-27T13:03:27;101519.31;;;4.53;82.58
31483;BME280;18103;52.246;8.052;2023-01-27T13:05:54;101520.69;;;4.38;82.94
31483;BME280;18103;52.246;8.052;2023-01-27T13:08:22;101518.00;;;4.41;82.31
31483;BME280;18103;52.246;8.052;2023-01-27T13:10:55;101530.19;;;4.40;82.45
31483;BME280;18103;52.246;8.052;2023-01-27T13:13:26;101521.16;;;4.51;82.30
31483;BME280;18103;52.246;8.052;2023-01-27T13:18:35;101523.09;;;4.44;81.80
31483;BME280;18103;52.246;8.052;2023-01-27T13:21:12;101516.88;;;4.48;82.13
31483;BME280;18103;52.246;8.052;2023-01-27T13:23:39;101520.59;;;4.41;82.08
31483;BME280;18103;52.246;8.052;2023-01-27T13:28:54;101524.94;;;4.40;82.38
31483;BME280;18103;52.246;8.052;2023-01-27T13:33:54;101525.66;;;4.45;83.25
31483;BME280;18103;52.246;8.052;2023-01-27T13:36:34;101537.03;;;4.44;82.73
31483;BME280;18103;52.246;8.052;2023-01-27T13:44:46;101533.00;;;4.34;83.11
31483;BME280;18103;52.246;8.052;2023-01-27T13:47:18;101532.66;;;4.45;82.01
31483;BME280;18103;52.246;8.052;2023-01-27T13:49:54;101532.66;;;4.45;82.10
31483;BME280;18103;52.246;8.052;2023-01-27T13:52:22;101526.25;;;4.54;82.18
31483;BME280;18103;52.246;8.052;2023-01-27T13:54:48;101528.56;;;4.36;82.78
31483;BME280;18103;52.246;8.052;2023-01-27T14:08:52;101543.13;;;4.45;81.98
31483;BME280;18103;52.246;8.052;2023-01-27T14:11:28;101539.56;;;4.46;82.17
31483;BME280;18103;52.246;8.052;2023-01-27T14:25:22;101547.25;;;4.25;82.45
31483;BME280;18103;52.246;8.052;2023-01-27T14:27:56;101548.03;;;4.27;81.76
31483;BME280;18103;52.246;8.052;2023-01-27T14:30:27;101547.69;;;4.38;81.36
31483;BME280;18103;52.246;8.052;2023-01-27T14:33:03;101544.91;;;4.16;82.00
31483;BME280;18103;52.246;8.052;2023-01-27T14:35:47;101544.53;;;4.02;81.48
31483;BME280;18103;52.246;8.052;2023-01-27T14:38:32;101550.75;;;4.24;81.69
31483;BME280;18103;52.246;8.052;2023-01-27T14:41:22;101556.16;;;4.18;81.47
31483;BME280;18103;52.246;8.052;2023-01-27T14:47:22;101559.50;;;4.23;81.76
31483;BME280;18103;52.246;8.052;2023-01-27T14:49:57;101555.25;;;4.19;82.01
31483;BME280;18103;52.246;8.052;2023-01-27T14:55:33;101554.72;;;4.36;80.79
31483;BME280;18103;52.246;8.052;2023-01-27T14:58:26;101556.38;;;4.39;81.11